Time;durP1;ratioP1;P1;durP2;ratioP2;P2;SDS_P1;SDS_P2;PMS_P1;PMS_P2;Temp;Humidity;BMP_temperature;BMP_pressure;BME280_temperature;BME280_humidity;BME280_pressure;Samples;Min_cycle;Max_cycle;Signal;HPM_P1;HPM_P2
2022/05/28 12:28:48;;;;;;;1.85;0.52;;;19.30;99.90;;;;;;5073526;27;20329;-63
2022/05/28 12:31:27;;;;;;;3.25;1.33;;;18.80;99.90;;;;;;5069375;28;20029;-64
2022/05/28 12:33:59;;;;;;;5.43;0.73;;;18.70;99.90;;;;;;5061394;28;20411;-61
2022/05/28 12:36:37;;;;;;;12.18;1.30;;;18.30;99.90;;;;;;5065670;28;20039;-61
2022/05/28 12:39:14;;;;;;;2.85;0.75;;;18.60;99.90;;;;;;5069961;28;20567;-62
2022/05/28 12:41:41;;;;;;;3.15;0.60;;;18.60;99.90;;;;;;5063634;28;20037;-62
2022/05/28 12:44:18;;;;;;;8.55;1.80;;;18.20;99.90;;;;;;5065174;28;20031;-60
2022/05/28 12:46:56;;;;;;;3.83;0.90;;;18.10;99.90;;;;;;5065409;28;20681;-62
2022/05/28 12:49:56;;;;;;;1.75;0.60;;;17.80;99.90;;;;;;5064540;28;20040;-62
2022/05/28 12:52:39;;;;;;;13.07;1.02;;;17.80;99.90;;;;;;5068030;28;20070;-61
2022/05/28 12:55:11;;;;;;;5.05;0.70;;;18.50;99.90;;;;;;5069179;28;20025;-61
2022/05/28 12:57:38;;;;;;;7.05;0.93;;;19.10;99.90;;;;;;5071005;28;20128;-62
2022/05/28 13:00:12;;;;;;;1.77;0.80;;;19.90;99.90;;;;;;5070199;28;20025;-61
2022/05/28 13:02:48;;;;;;;1.85;0.68;;;19.80;99.90;;;;;;5065982;28;20090;-63
2022/05/28 13:05:38;;;;;;;2.47;0.77;;;18.90;99.90;;;;;;5066107;28;20064;-61
2022/05/28 13:08:12;;;;;;;5.03;0.80;;;18.70;99.90;;;;;;5061627;28;20025;-63
2022/05/28 13:10:45;;;;;;;;;;;18.80;99.90;;;;;;5069436;28;20151;-62
2022/05/28 13:13:16;;;;;;;8.73;1.23;;;18.70;99.90;;;;;;5065162;28;19915;-63
2022/05/28 13:16:15;;;;;;;9.95;0.73;;;18.60;99.90;;;;;;5060550;28;20078;-61
2022/05/28 13:19:18;;;;;;;4.03;0.70;;;18.90;99.90;;;;;;5066014;28;20021;-63
2022/05/28 13:21:58;;;;;;;2.42;0.73;;;19.40;99.90;;;;;;5065223;28;20062;-62
2022/05/28 13:24:36;;;;;;;2.30;1.08;;;19.70;99.90;;;;;;5068121;28;20048;-61
2022/05/28 13:27:16;;;;;;;4.93;0.68;;;19.30;99.90;;;;;;5064960;28;20029;-62
2022/05/28 13:29:58;;;;;;;5.65;1.33;;;19.20;99.90;;;;;;5068760;28;20056;-64
2022/05/28 13:32:30;;;;;;;4.78;0.70;;;18.70;99.00;;;;;;5069518;28;20023;-63
2022/05/28 13:35:09;;;;;;;5.82;0.65;;;18.30;99.70;;;;;;5064416;28;20035;-62
2022/05/28 13:37:36;;;;;;;1.13;0.73;;;18.30;99.90;;;;;;5064222;28;20032;-63
2022/05/28 13:40:02;;;;;;;0.47;0.40;;;18.90;99.80;;;;;;5050487;28;20406;-59
2022/05/28 13:42:29;;;;;;;4.13;0.80;;;19.50;98.90;;;;;;5051890;28;21749;-62
2022/05/28 13:44:57;;;;;;;3.00;0.82;;;20.10;98.50;;;;;;5051254;28;20024;-61
2022/05/28 13:47:29;;;;;;;1.42;0.70;;;20.20;98.00;;;;;;5050758;28;20033;-62
2022/05/28 13:49:56;;;;;;;11.68;1.67;;;19.50;98.40;;;;;;5049746;28;20033;-60
2022/05/28 13:52:22;;;;;;;4.60;0.60;;;19.20;99.70;;;;;;5048053;28;20493;-63
2022/05/28 13:54:59;;;;;;;3.97;0.70;;;19.30;99.80;;;;;;5050486;28;20060;-62
2022/05/28 13:57:43;;;;;;;2.42;0.60;;;18.80;98.80;;;;;;5055810;28;20048;-60
2022/05/28 14:00:28;;;;;;;1.60;0.63;;;18.70;99.50;;;;;;5045585;28;20115;-63
2022/05/28 14:03:01;;;;;;;5.90;0.80;;;18.40;99.40;;;;;;5050757;28;20383;-61
2022/05/28 14:05:31;;;;;;;3.20;0.60;;;18.80;99.90;;;;;;5046700;28;20716;-63
2022/05/28 14:08:02;;;;;;;3.97;0.95;;;19.40;98.90;;;;;;5050797;28;20632;-62
2022/05/28 14:10:30;;;;;;;9.45;0.80;;;20.10;99.40;;;;;;5052136;28;20162;-61
2022/05/28 14:12:55;;;;;;;3.80;0.80;;;20.40;98.30;;;;;;5048840;28;20056;-59
2022/05/28 14:15:28;;;;;;;4.88;0.90;;;20.70;98.60;;;;;;5044870;28;20321;-64
2022/05/28 14:17:54;;;;;;;6.60;1.00;;;20.40;98.40;;;;;;5055542;28;20051;-63
2022/05/28 14:20:34;;;;;;;5.25;0.82;;;20.10;98.10;;;;;;5054531;28;20503;-61
2022/05/28 14:23:00;;;;;;;3.85;0.77;;;20.10;98.90;;;;;;5054054;28;20020;-62
2022/05/28 14:25:31;;;;;;;2.97;0.70;;;20.00;96.80;;;;;;5045303;28;20032;-62
2022/05/28 14:28:06;;;;;;;1.38;0.85;;;19.70;97.20;;;;;;5050124;28;20371;-63
2022/05/28 14:30:37;;;;;;;1.83;0.70;;;19.10;97.20;;;;;;5040688;28;20060;-64
2022/05/28 14:33:13;;;;;;;4.13;0.75;;;18.80;98.40;;;;;;5045519;28;20017;-62
2022/05/28 14:35:44;;;;;;;4.75;0.73;;;18.90;98.20;;;;;;5046341;28;20025;-63
2022/05/28 14:38:13;;;;;;;1.70;0.70;;;19.30;97.70;;;;;;5046000;28;20486;-62
2022/05/28 14:40:47;;;;;;;3.65;0.88;;;19.70;97.80;;;;;;5045074;28;20044;-63
2022/05/28 14:43:26;;;;;;;3.60;0.90;;;19.80;97.20;;;;;;5044957;28;20021;-63
2022/05/28 14:46:02;;;;;;;12.85;1.13;;;19.70;96.20;;;;;;5044810;28;20033;-64
2022/05/28 14:48:28;;;;;;;1.77;0.60;;;19.50;96.30;;;;;;5045465;28;20039;-63
2022/05/28 14:51:02;;;;;;;7.93;0.80;;;19.70;96.30;;;;;;5049428;28;20029;-60
2022/05/28 14:53:43;;;;;;;4.05;0.63;;;19.70;96.60;;;;;;5045338;28;20058;-62
2022/05/28 14:56:36;;;;;;;3.40;0.70;;;20.00;96.60;;;;;;5048269;28;20055;-63
2022/05/28 14:59:04;;;;;;;3.15;0.80;;;19.90;95.70;;;;;;5044021;28;20757;-63
2022/05/28 15:01:35;;;;;;;3.22;0.70;;;19.70;96.80;;;;;;5047772;28;20049;-62
2022/05/28 15:04:16;;;;;;;4.28;1.13;;;19.70;97.90;;;;;;5047550;28;20033;-61
2022/05/28 15:07:00;;;;;;;2.10;0.82;;;19.90;98.20;;;;;;5049289;28;20683;-61
2022/05/28 15:09:27;;;;;;;6.60;0.90;;;19.80;97.30;;;;;;5041713;28;20032;-61
2022/05/28 15:12:14;;;;;;;4.40;0.55;;;19.90;97.40;;;;;;5045020;28;20171;-59
2022/05/28 15:14:40;;;;;;;1.88;0.75;;;20.00;97.20;;;;;;5047129;28;20104;-62
2022/05/28 15:17:06;;;;;;;2.60;0.75;;;20.00;97.20;;;;;;5045213;28;20095;-59
2022/05/28 15:19:32;;;;;;;5.00;0.75;;;20.20;96.30;;;;;;5048098;28;20086;-59
2022/05/28 15:22:18;;;;;;;2.33;1.00;;;20.30;96.30;;;;;;5045305;28;20029;-62
2022/05/28 15:24:45;;;;;;;2.47;0.95;;;20.50;96.50;;;;;;5047006;28;20364;-60
2022/05/28 15:27:11;;;;;;;5.45;0.90;;;20.40;95.70;;;;;;5045964;28;20033;-60
2022/05/28 15:29:38;;;;;;;8.88;0.98;;;20.00;96.70;;;;;;5046574;28;20457;-61
2022/05/28 15:32:14;;;;;;;0.75;0.50;;;20.00;95.60;;;;;;5047483;28;20051;-61
2022/05/28 15:34:39;;;;;;;6.40;1.02;;;19.90;96.20;;;;;;5068337;22;20048;-62
2022/05/28 15:39:50;;;;;;;5.72;0.70;;;19.70;95.90;;;;;;5057808;28;20120;-62
2022/05/28 15:42:22;;;;;;;4.55;0.80;;;19.60;96.30;;;;;;5058795;28;20123;-59
2022/05/28 15:44:47;;;;;;;4.18;0.80;;;19.50;95.70;;;;;;5049218;28;20028;-59
2022/05/28 15:47:13;;;;;;;3.05;1.00;;;19.70;96.10;;;;;;5067637;28;20497;-60
2022/05/28 15:49:38;;;;;;;2.70;0.70;;;20.00;95.90;;;;;;5062091;28;20081;-61
2022/05/28 15:52:04;;;;;;;4.00;0.70;;;19.80;96.60;;;;;;5068855;28;20036;-60
2022/05/28 15:54:30;;;;;;;7.93;1.25;;;20.00;96.70;;;;;;5041255;28;20032;-62
2022/05/28 15:56:59;;;;;;;8.32;0.90;;;20.20;96.00;;;;;;5063122;28;20028;-62
2022/05/28 15:59:25;;;;;;;3.22;0.70;;;20.30;95.60;;;;;;5037512;28;20017;-62
2022/05/28 16:01:51;;;;;;;6.22;0.95;;;20.30;95.70;;;;;;5064332;28;20032;-57
2022/05/28 16:04:16;;;;;;;5.13;0.82;;;20.20;94.50;;;;;;5060403;28;20036;-60
2022/05/28 16:06:48;;;;;;;3.70;0.70;;;20.10;94.60;;;;;;5062153;28;20090;-61
2022/05/28 16:09:14;;;;;;;4.22;0.80;;;19.60;94.40;;;;;;5064106;28;20083;-58
2022/05/28 16:11:40;;;;;;;6.03;0.85;;;19.60;94.70;;;;;;5063658;28;20021;-60
2022/05/28 16:14:06;;;;;;;3.65;1.00;;;19.50;94.40;;;;;;5056457;28;20032;-62
2022/05/28 16:16:32;;;;;;;3.20;1.20;;;19.90;94.70;;;;;;5055414;28;20037;-59
2022/05/28 16:18:59;;;;;;;5.88;0.90;;;20.10;95.50;;;;;;5063324;28;20024;-59
2022/05/28 16:21:25;;;;;;;7.97;0.98;;;19.90;95.10;;;;;;5065559;28;20026;-55
2022/05/28 16:23:51;;;;;;;5.82;2.13;;;19.10;95.40;;;;;;5050729;28;20479;-58
2022/05/28 16:26:29;;;;;;;11.07;1.40;;;18.70;96.40;;;;;;5054245;28;20032;-60
2022/05/28 16:28:55;;;;;;;6.00;1.27;;;19.50;96.70;;;;;;5058133;28;20064;-63
2022/05/28 16:31:22;;;;;;;9.43;1.08;;;19.60;96.40;;;;;;5055451;28;20029;-60
2022/05/28 16:33:48;;;;;;;4.38;0.68;;;19.40;96.40;;;;;;5059084;28;20035;-58
2022/05/28 16:36:13;;;;;;;6.18;1.15;;;19.10;96.80;;;;;;5054810;28;20029;-58
2022/05/28 16:38:39;;;;;;;7.35;1.40;;;18.90;97.00;;;;;;5059109;28;20021;-59
2022/05/28 16:41:05;;;;;;;4.00;0.95;;;18.50;96.30;;;;;;5055749;28;20128;-56
2022/05/28 16:43:31;;;;;;;8.88;1.40;;;18.40;96.90;;;;;;5059077;28;20086;-61
2022/05/28 16:45:58;;;;;;;3.15;0.90;;;18.30;96.70;;;;;;5058044;28;20927;-62
2022/05/28 16:48:24;;;;;;;6.05;1.05;;;18.30;96.80;;;;;;5060518;28;20678;-58
2022/05/28 16:50:49;;;;;;;6.45;0.80;;;18.30;97.30;;;;;;5061492;28;20044;-61
2022/05/28 16:53:15;;;;;;;4.63;1.00;;;18.30;97.70;;;;;;5057126;28;20078;-61
2022/05/28 16:55:44;;;;;;;4.07;1.00;;;18.30;98.10;;;;;;5057663;28;20103;-57
2022/05/28 16:58:11;;;;;;;6.57;1.55;;;18.10;98.10;;;;;;5059592;28;20475;-59
2022/05/28 17:00:38;;;;;;;5.68;1.55;;;18.10;98.30;;;;;;5054409;28;20422;-62
2022/05/28 17:03:03;;;;;;;5.75;0.90;;;18.00;98.30;;;;;;5060215;28;20029;-60
2022/05/28 17:05:29;;;;;;;6.15;0.88;;;17.90;98.90;;;;;;5062276;28;20589;-57
2022/05/28 17:07:54;;;;;;;1.70;0.70;;;17.70;98.40;;;;;;5060911;28;20512;-60
2022/05/28 17:10:20;;;;;;;8.07;1.40;;;17.60;97.60;;;;;;5055018;28;20034;-58
2022/05/28 17:12:46;;;;;;;10.02;0.98;;;17.60;98.70;;;;;;5065221;28;20040;-59
2022/05/28 17:15:13;;;;;;;7.53;1.08;;;17.70;99.50;;;;;;5057870;28;20608;-61
2022/05/28 17:17:39;;;;;;;3.80;1.05;;;17.60;99.60;;;;;;5070566;28;20037;-54
2022/05/28 17:20:05;;;;;;;9.80;1.00;;;17.50;99.70;;;;;;5071272;28;20047;-53
2022/05/28 17:22:36;;;;;;;4.97;0.98;;;17.40;99.80;;;;;;5060573;28;20124;-56
2022/05/28 17:25:02;;;;;;;6.03;1.08;;;17.50;99.90;;;;;;5058341;28;20047;-57
2022/05/28 17:27:28;;;;;;;6.82;1.33;;;17.50;99.40;;;;;;5064620;28;20028;-58
2022/05/28 17:29:54;;;;;;;7.80;1.13;;;17.50;99.80;;;;;;5070760;28;20028;-57
2022/05/28 17:32:26;;;;;;;6.45;1.17;;;17.50;99.50;;;;;;5063795;28;20048;-58
2022/05/28 17:34:54;;;;;;;6.80;1.08;;;17.50;99.90;;;;;;5060453;28;20048;-57
2022/05/28 17:37:25;;;;;;;5.88;1.30;;;17.60;99.90;;;;;;5066674;28;20397;-57
2022/05/28 17:39:50;;;;;;;6.97;1.67;;;17.50;99.90;;;;;;5068184;28;20086;-59
2022/05/28 17:42:16;;;;;;;3.83;0.88;;;17.50;99.80;;;;;;5068445;28;20358;-58
2022/05/28 17:44:42;;;;;;;6.97;1.15;;;17.40;99.90;;;;;;5063321;28;20065;-58
2022/05/28 17:47:08;;;;;;;9.10;1.50;;;17.20;99.90;;;;;;5065881;28;20032;-63
2022/05/28 17:49:34;;;;;;;5.70;1.33;;;17.10;99.90;;;;;;5069721;28;20021;-58
2022/05/28 17:51:59;;;;;;;13.95;2.75;;;17.00;99.90;;;;;;5068863;28;20024;-57
2022/05/28 17:54:25;;;;;;;5.28;1.10;;;17.00;99.90;;;;;;5072335;28;20027;-59
2022/05/28 17:56:50;;;;;;;7.30;1.35;;;17.00;99.90;;;;;;5068448;28;20027;-60
2022/05/28 17:59:16;;;;;;;9.63;1.20;;;17.00;99.90;;;;;;5067897;28;20032;-57
2022/05/28 18:01:44;;;;;;;5.00;1.70;;;17.00;99.90;;;;;;5065203;28;20032;-61
2022/05/28 18:04:15;;;;;;;6.88;0.75;;;16.90;99.90;;;;;;5067671;28;20039;-58
2022/05/28 18:06:40;;;;;;;7.85;1.15;;;16.80;99.90;;;;;;5069378;28;20035;-57
2022/05/28 18:09:06;;;;;;;7.38;1.42;;;16.60;99.90;;;;;;5066267;28;20029;-58
2022/05/28 18:11:32;;;;;;;8.40;1.10;;;16.50;99.90;;;;;;5066669;28;20089;-61
2022/05/28 18:13:57;;;;;;;8.23;1.25;;;16.40;99.90;;;;;;5065118;28;20029;-59
2022/05/28 18:16:30;;;;;;;5.13;0.95;;;16.40;99.90;;;;;;5044280;28;20032;-59
2022/05/28 18:18:58;;;;;;;5.18;1.08;;;16.40;99.90;;;;;;5061499;28;20044;-60
2022/05/28 18:21:27;;;;;;;3.10;0.80;;;16.40;99.90;;;;;;5065122;28;20024;-62
2022/05/28 18:23:53;;;;;;;5.30;1.10;;;16.40;99.90;;;;;;5065053;28;20037;-60
2022/05/28 18:26:20;;;;;;;2.95;1.00;;;16.30;99.90;;;;;;5058955;28;20510;-60
2022/05/28 18:28:46;;;;;;;6.28;1.02;;;16.20;99.90;;;;;;5064136;28;20051;-58
2022/05/28 18:31:12;;;;;;;10.23;1.55;;;16.20;99.90;;;;;;5063525;28;20025;-62
2022/05/28 18:33:37;;;;;;;3.20;1.00;;;16.10;99.90;;;;;;5062793;28;20107;-60
2022/05/28 18:36:08;;;;;;;2.15;0.80;;;15.90;99.90;;;;;;5066816;28;20054;-60
2022/05/28 18:38:34;;;;;;;6.63;1.27;;;15.90;99.90;;;;;;5068727;28;20685;-59
2022/05/28 18:41:11;;;;;;;6.72;1.17;;;15.80;99.90;;;;;;5059374;28;20057;-59
2022/05/28 18:43:38;;;;;;;7.18;0.90;;;15.80;99.90;;;;;;5066792;28;20052;-58
2022/05/28 18:46:04;;;;;;;4.97;1.08;;;15.70;99.90;;;;;;5058381;28;20554;-57
2022/05/28 18:48:29;;;;;;;3.63;0.90;;;15.70;99.90;;;;;;5064054;28;20521;-57
2022/05/28 18:50:55;;;;;;;5.82;1.10;;;15.60;99.90;;;;;;5055397;28;20032;-59
2022/05/28 18:56:05;;;;;;;3.60;0.90;;;15.50;99.90;;;;;;5059875;28;20477;-62
2022/05/28 18:58:31;;;;;;;6.90;1.10;;;15.40;99.90;;;;;;5066913;28;20108;-61
2022/05/28 19:00:56;;;;;;;5.50;1.00;;;15.40;99.90;;;;;;5055683;28;20033;-54
2022/05/28 19:03:23;;;;;;;10.00;1.38;;;15.20;99.90;;;;;;5062928;28;20394;-60
2022/05/28 19:05:49;;;;;;;5.78;1.27;;;15.20;99.90;;;;;;5063198;28;20398;-58
2022/05/28 19:08:25;;;;;;;9.95;1.40;;;15.20;99.90;;;;;;5045282;28;20090;-59
2022/05/28 19:10:51;;;;;;;5.43;0.93;;;15.10;99.90;;;;;;5067017;28;20085;-61
2022/05/28 19:13:17;;;;;;;10.52;1.23;;;15.10;99.90;;;;;;5065787;28;20021;-59
2022/05/28 19:15:45;;;;;;;12.65;1.40;;;15.10;99.90;;;;;;5065144;28;20121;-61
2022/05/28 19:18:12;;;;;;;7.25;1.55;;;14.90;99.90;;;;;;5065911;28;20070;-61
2022/05/28 19:20:41;;;;;;;8.45;1.52;;;14.80;99.90;;;;;;5066531;28;20027;-61
2022/05/28 19:23:08;;;;;;;7.47;1.65;;;14.70;99.90;;;;;;5063544;28;20036;-59
2022/05/28 19:28:20;;;;;;;7.22;1.08;;;14.50;99.90;;;;;;5056906;28;20039;-57
2022/05/28 19:30:47;;;;;;;4.43;1.02;;;14.40;99.90;;;;;;5064334;28;20391;-61
2022/05/28 19:33:27;;;;;;;5.38;1.27;;;14.30;99.90;;;;;;5064532;28;20100;-60
2022/05/28 19:35:52;;;;;;;8.32;1.35;;;14.30;99.90;;;;;;5064186;28;20402;-59
2022/05/28 19:38:18;;;;;;;6.15;1.70;;;14.20;99.90;;;;;;5058837;28;20028;-59
2022/05/28 19:40:47;;;;;;;4.25;1.23;;;14.10;99.90;;;;;;5045500;28;20725;-57
2022/05/28 19:43:13;;;;;;;10.57;1.35;;;14.10;99.90;;;;;;5062412;28;20033;-61
2022/05/28 19:45:50;;;;;;;2.00;1.10;;;14.00;99.90;;;;;;5061934;28;20108;-60
2022/05/28 19:48:18;;;;;;;4.45;1.08;;;14.00;99.90;;;;;;5063771;28;20032;-61
2022/05/28 19:50:44;;;;;;;8.65;1.35;;;14.00;99.90;;;;;;5065410;28;20078;-60
2022/05/28 19:53:11;;;;;;;7.47;1.17;;;13.90;99.90;;;;;;5060888;28;20303;-58
2022/05/28 19:55:36;;;;;;;6.72;1.13;;;13.90;99.90;;;;;;5060350;28;20449;-60
2022/05/28 19:58:03;;;;;;;6.03;1.55;;;13.80;99.90;;;;;;5062029;28;20035;-61
2022/05/28 20:00:29;;;;;;;3.78;1.02;;;13.80;99.90;;;;;;5060598;28;20040;-60
2022/05/28 20:02:55;;;;;;;6.82;1.20;;;13.80;99.90;;;;;;5054780;28;20021;-61
2022/05/28 20:05:22;;;;;;;8.52;1.35;;;13.80;99.90;;;;;;5062796;28;20179;-62
2022/05/28 20:07:49;;;;;;;5.90;1.70;;;13.70;99.90;;;;;;5058989;28;20040;-61
2022/05/28 20:10:15;;;;;;;4.00;1.20;;;13.70;99.90;;;;;;5061278;28;20492;-61
2022/05/28 20:12:41;;;;;;;8.35;1.17;;;13.70;99.90;;;;;;5055231;28;20025;-61
2022/05/28 20:15:10;;;;;;;8.93;1.95;;;13.70;99.90;;;;;;5063293;28;20029;-56
2022/05/28 20:17:36;;;;;;;3.72;1.33;;;13.60;99.90;;;;;;5064124;28;20044;-58
2022/05/28 20:20:03;;;;;;;4.53;1.10;;;13.50;99.90;;;;;;5060512;28;20029;-60
2022/05/28 20:22:29;;;;;;;4.22;1.17;;;13.40;99.90;;;;;;5059322;28;20028;-61
2022/05/28 20:24:54;;;;;;;4.97;1.23;;;13.40;99.90;;;;;;5060947;28;20047;-58
2022/05/28 20:27:20;;;;;;;15.63;1.60;;;13.30;99.90;;;;;;5062007;28;20033;-61
2022/05/28 20:29:45;;;;;;;9.93;1.38;;;13.30;99.90;;;;;;5061544;28;20029;-60
2022/05/28 20:32:11;;;;;;;10.32;1.25;;;13.30;99.90;;;;;;5062925;28;20037;-59
2022/05/28 20:34:39;;;;;;;4.07;1.00;;;13.20;99.90;;;;;;5063287;28;20147;-55
2022/05/28 20:37:06;;;;;;;12.45;1.58;;;13.20;99.90;;;;;;5065012;28;20039;-59
2022/05/28 20:39:33;;;;;;;5.93;1.40;;;13.10;99.90;;;;;;5068340;28;20024;-61
2022/05/28 20:41:58;;;;;;;5.65;1.45;;;13.00;99.90;;;;;;5061437;28;20593;-61
2022/05/28 20:44:25;;;;;;;5.78;1.40;;;13.00;99.90;;;;;;5073304;28;20107;-61
2022/05/28 20:46:51;;;;;;;6.15;1.13;;;12.90;99.90;;;;;;5068582;28;20035;-62
2022/05/28 20:49:17;;;;;;;6.20;1.08;;;12.90;99.90;;;;;;5071877;28;20429;-61
2022/05/28 20:51:45;;;;;;;3.35;1.10;;;12.80;99.90;;;;;;5072919;28;20039;-61
2022/05/28 20:54:11;;;;;;;12.38;1.55;;;12.80;99.90;;;;;;5069758;28;20013;-60
2022/05/28 20:56:38;;;;;;;10.20;1.42;;;12.80;99.90;;;;;;5064993;28;20040;-61
2022/05/28 20:59:05;;;;;;;3.22;1.25;;;12.70;99.90;;;;;;5071253;28;20100;-61
2022/05/28 21:01:30;;;;;;;3.60;1.17;;;12.70;99.90;;;;;;5069105;28;20050;-58
2022/05/28 21:04:00;;;;;;;3.70;1.15;;;12.70;99.90;;;;;;5067822;28;20024;-59
2022/05/28 21:06:40;;;;;;;4.43;1.33;;;12.70;99.90;;;;;;5073953;28;20023;-58
2022/05/28 21:09:07;;;;;;;7.35;1.70;;;12.60;99.90;;;;;;5068094;28;20025;-58
2022/05/28 21:11:34;;;;;;;1.67;1.08;;;12.60;99.90;;;;;;5067588;28;20024;-60
2022/05/28 21:13:59;;;;;;;10.82;1.20;;;12.60;99.90;;;;;;5067857;28;20074;-59
2022/05/28 21:16:26;;;;;;;8.70;1.40;;;12.50;99.90;;;;;;5065315;28;20016;-58
2022/05/28 21:18:54;;;;;;;8.20;1.83;;;12.50;99.90;;;;;;5068799;28;20036;-59
2022/05/28 21:21:27;;;;;;;7.57;0.95;;;12.40;99.90;;;;;;5069886;28;20039;-56
2022/05/28 21:23:53;;;;;;;4.82;1.08;;;12.40;99.90;;;;;;5069065;28;20753;-58
2022/05/28 21:31:53;;;;;;;13.95;1.63;;;12.30;99.90;;;;;;5041709;28;20043;-61
2022/05/28 21:34:19;;;;;;;8.02;1.27;;;12.30;99.90;;;;;;5073450;28;20042;-57
2022/05/28 21:36:48;;;;;;;3.60;1.20;;;12.20;99.90;;;;;;5069153;28;20024;-60
2022/05/28 21:39:14;;;;;;;5.40;1.33;;;12.20;99.90;;;;;;5065857;28;20174;-58
2022/05/28 21:41:40;;;;;;;5.55;1.40;;;12.10;99.90;;;;;;5071587;28;20557;-59
2022/05/28 21:44:06;;;;;;;7.65;1.08;;;12.10;99.90;;;;;;5069695;28;20529;-59
2022/05/28 21:46:35;;;;;;;4.53;0.98;;;12.00;99.90;;;;;;5071465;28;20033;-57
2022/05/28 21:49:02;;;;;;;7.53;1.45;;;12.10;99.90;;;;;;5066322;28;20113;-59
2022/05/28 21:51:28;;;;;;;9.55;1.60;;;12.00;99.90;;;;;;5055830;28;20048;-58
2022/05/28 21:53:54;;;;;;;10.40;1.40;;;12.00;99.90;;;;;;5061097;28;20028;-58
2022/05/28 21:56:20;;;;;;;2.65;1.10;;;11.90;99.90;;;;;;5060309;28;20029;-59
2022/05/28 21:58:46;;;;;;;5.88;1.30;;;11.90;99.90;;;;;;5068419;28;20086;-58
2022/05/28 22:01:21;;;;;;;11.40;1.70;;;11.90;99.90;;;;;;5070081;28;20035;-59
2022/05/28 22:03:49;;;;;;;9.73;2.25;;;11.90;99.90;;;;;;5070766;28;20039;-60
2022/05/28 22:06:16;;;;;;;8.63;1.23;;;11.80;99.90;;;;;;5064623;28;20498;-60
2022/05/28 22:08:42;;;;;;;4.53;1.00;;;11.80;99.90;;;;;;5059759;28;20566;-58
2022/05/28 22:11:08;;;;;;;9.27;1.48;;;11.80;99.90;;;;;;5066682;28;20398;-57
2022/05/28 22:13:33;;;;;;;5.47;1.27;;;11.80;99.90;;;;;;5065417;28;20016;-60
2022/05/28 22:16:04;;;;;;;9.25;1.45;;;11.70;99.90;;;;;;5061391;28;20127;-60
2022/05/28 22:18:30;;;;;;;5.57;1.60;;;11.70;99.90;;;;;;5061940;28;20068;-59
2022/05/28 22:20:55;;;;;;;9.32;1.35;;;11.60;99.90;;;;;;5063505;28;20028;-59
2022/05/28 22:23:21;;;;;;;7.57;1.30;;;11.60;99.90;;;;;;5061758;28;20036;-61
2022/05/28 22:25:46;;;;;;;4.47;1.20;;;11.60;99.90;;;;;;5062817;28;20592;-59
2022/05/28 22:28:12;;;;;;;10.25;2.15;;;11.50;99.90;;;;;;5067613;28;20040;-59
2022/05/28 22:30:38;;;;;;;5.15;1.10;;;11.50;99.90;;;;;;5067986;28;20398;-60
2022/05/28 22:33:04;;;;;;;14.07;1.40;;;11.50;99.90;;;;;;5059996;28;20506;-59
2022/05/28 22:35:30;;;;;;;5.45;1.10;;;11.40;99.90;;;;;;5070672;28;20028;-55
2022/05/28 22:37:55;;;;;;;10.50;1.25;;;11.40;99.90;;;;;;5064723;28;20025;-57
2022/05/28 22:40:22;;;;;;;11.82;2.08;;;11.40;99.90;;;;;;5069656;28;20028;-56
2022/05/28 22:42:48;;;;;;;7.10;0.98;;;11.30;99.90;;;;;;5066275;28;20032;-58
2022/05/28 22:45:19;;;;;;;7.97;1.30;;;11.30;99.90;;;;;;5067879;28;20059;-61
2022/05/28 22:47:59;;;;;;;4.60;0.95;;;11.20;99.90;;;;;;5066806;28;20142;-61
2022/05/28 22:50:28;;;;;;;2.83;1.00;;;11.20;99.90;;;;;;5062837;28;20016;-59
2022/05/28 22:52:55;;;;;;;6.55;1.17;;;11.10;99.90;;;;;;5059765;28;20130;-59
2022/05/28 22:55:21;;;;;;;2.35;1.17;;;11.10;99.90;;;;;;5059207;28;20020;-60
2022/05/28 22:57:48;;;;;;;3.83;1.00;;;11.00;99.90;;;;;;5063335;28;20040;-60
2022/05/28 23:00:15;;;;;;;8.50;1.23;;;11.00;99.90;;;;;;5064733;28;20497;-60
2022/05/28 23:02:41;;;;;;;10.00;1.80;;;11.00;99.90;;;;;;5065568;28;20028;-60
2022/05/28 23:05:09;;;;;;;5.05;1.08;;;11.00;99.90;;;;;;5065152;28;20030;-60
2022/05/28 23:07:35;;;;;;;6.70;1.35;;;10.90;99.90;;;;;;5063750;28;20036;-57
2022/05/28 23:10:01;;;;;;;4.50;1.15;;;10.80;99.90;;;;;;5058672;28;20020;-57
2022/05/28 23:12:27;;;;;;;10.13;1.80;;;10.80;99.90;;;;;;5063507;28;20035;-60
2022/05/28 23:14:53;;;;;;;10.30;1.33;;;10.80;99.90;;;;;;5067086;28;20024;-61
2022/05/28 23:17:19;;;;;;;4.18;1.77;;;10.80;99.90;;;;;;5067642;28;20043;-57
2022/05/28 23:19:45;;;;;;;7.75;1.10;;;10.70;99.90;;;;;;5064606;28;20142;-59
2022/05/28 23:22:10;;;;;;;1.67;0.88;;;10.70;99.90;;;;;;5067103;28;20033;-60
2022/05/28 23:27:21;;;;;;;2.63;1.20;;;10.60;99.90;;;;;;5067399;28;20051;-61
2022/05/28 23:29:47;;;;;;;4.13;1.35;;;10.60;99.90;;;;;;5060438;28;20028;-59
2022/05/28 23:32:13;;;;;;;2.28;1.30;;;10.60;99.90;;;;;;5066003;28;20047;-59
2022/05/28 23:34:40;;;;;;;3.88;1.00;;;10.60;99.90;;;;;;5063397;28;20052;-57
2022/05/28 23:37:15;;;;;;;2.28;0.98;;;10.60;99.90;;;;;;5063272;28;20025;-57
2022/05/28 23:39:40;;;;;;;7.53;0.98;;;10.60;99.90;;;;;;5045374;28;20048;-59
2022/05/28 23:42:10;;;;;;;11.95;1.90;;;10.50;99.90;;;;;;5063018;28;20108;-60
2022/05/28 23:44:36;;;;;;;5.35;1.08;;;10.50;99.90;;;;;;5058861;28;20031;-60
2022/05/28 23:47:03;;;;;;;4.10;0.98;;;10.50;99.90;;;;;;5062281;28;20540;-62
2022/05/28 23:49:40;;;;;;;6.85;1.58;;;10.50;99.90;;;;;;5066300;28;20441;-61
2022/05/28 23:52:10;;;;;;;9.43;1.02;;;10.50;99.90;;;;;;5066472;28;20474;-62
2022/05/28 23:54:37;;;;;;;8.52;1.35;;;10.40;99.90;;;;;;5066762;28;20036;-61
2022/05/28 23:57:04;;;;;;;6.35;1.00;;;10.40;99.90;;;;;;5066534;28;20024;-59
2022/05/28 23:59:31;;;;;;;5.88;1.55;;;10.40;99.90;;;;;;5069010;28;20498;-61
